Time;durP1;ratioP1;P1;durP2;ratioP2;P2;SDS_P1;SDS_P2;PMS_P1;PMS_P2;Temp;Humidity;BMP_temperature;BMP_pressure;BME280_temperature;BME280_humidity;BME280_pressure;Samples;Min_cycle;Max_cycle;Signal;HPM_P1;HPM_P2
2021/05/20 00:01:38;;;;;;;;;;;;;;;7.72;57.66;100857.98;1726294;81;20156;-75
2021/05/20 00:04:05;;;;;;;;;;;;;;;7.67;57.63;100853.27;1755418;81;20183;-75
2021/05/20 00:06:31;;;;;;;;;;;;;;;7.60;57.62;100855.41;1757976;80;20167;-75
2021/05/20 00:08:57;;;;;;;;;;;;;;;7.53;57.73;100849.84;1750809;80;20156;-75
2021/05/20 00:11:23;;;;;;;;;;;;;;;7.50;57.76;100853.27;1742818;81;20181;-75
2021/05/20 00:13:49;;;;;;;;;;;;;;;7.47;57.76;100857.13;1756933;81;20187;-75
2021/05/20 00:16:15;;;;;;;;;;;;;;;7.45;57.85;100863.13;1730669;80;20169;-75
2021/05/20 00:18:42;;;;;;;;;;;;;;;7.40;57.80;100862.27;1748590;81;20158;-75
2021/05/20 00:21:08;;;;;;;;;;;;;;;7.31;57.88;100861.82;1744941;81;20184;-75
2021/05/20 00:23:34;;;;;;;;;;;;;;;7.28;57.94;100861.81;1751805;81;20161;-75
2021/05/20 00:26:00;;;;;;;;;;;;;;;7.27;57.95;100864.84;1742178;81;20240;-75
2021/05/20 00:28:26;;;;;;;;;;;;;;;7.24;57.90;100858.84;1753552;81;20189;-75
2021/05/20 00:30:52;;;;;;;;;;;;;;;7.18;57.90;100860.12;1761146;81;20683;-75
2021/05/20 00:33:18;;;;;;;;;;;;;;;7.13;57.99;100863.10;1751490;80;20150;-76
2021/05/20 00:35:44;;;;;;;;;;;;;;;7.10;58.02;100866.95;1726871;81;20175;-76
2021/05/20 00:38:11;;;;;;;;;;;;;;;7.00;58.05;100870.36;1759665;81;20156;-75
2021/05/20 00:40:37;;;;;;;;;;;;;;;6.95;58.14;100866.48;1751773;81;20150;-75
2021/05/20 00:43:04;;;;;;;;;;;;;;;6.89;58.21;100867.75;1742867;81;20172;-75
2021/05/20 00:45:30;;;;;;;;;;;;;;;6.88;58.32;100872.46;1743116;81;20203;-75
2021/05/20 00:47:56;;;;;;;;;;;;;;;6.89;58.36;100875.03;1754154;81;20319;-75
2021/05/20 00:50:22;;;;;;;;;;;;;;;6.90;58.33;100873.33;1746797;81;20162;-75
2021/05/20 00:52:50;;;;;;;;;;;;;;;6.89;58.36;100873.75;1738847;81;20168;-75
2021/05/20 00:55:19;;;;;;;;;;;;;;;6.80;58.29;100876.72;1735336;81;20227;-75
2021/05/20 00:57:44;;;;;;;;;;;;;;;6.77;58.42;100877.56;1746734;81;20140;-75
2021/05/20 01:00:13;;;;;;;;;;;;;;;6.78;58.45;100877.14;1754957;81;20144;-75
2021/05/20 01:02:40;;;;;;;;;;;;;;;6.78;58.38;100884.84;1755825;81;20190;-75
2021/05/20 01:05:09;;;;;;;;;;;;;;;6.76;58.38;100885.30;1744131;81;20145;-75
2021/05/20 01:07:35;;;;;;;;;;;;;;;6.69;58.46;100882.27;1748875;81;20149;-75
2021/05/20 01:10:04;;;;;;;;;;;;;;;6.68;58.49;100885.69;1729832;81;20163;-75
2021/05/20 01:12:31;;;;;;;;;;;;;;;6.56;58.51;100887.35;1746052;81;20157;-76
2021/05/20 01:14:56;;;;;;;;;;;;;;;6.53;58.59;100882.62;1758827;81;20218;-75
2021/05/20 01:17:24;;;;;;;;;;;;;;;6.53;58.68;100885.20;1730096;81;20165;-75
2021/05/20 01:19:51;;;;;;;;;;;;;;;6.53;58.76;100882.20;1752941;79;20864;-75
2021/05/20 01:22:17;;;;;;;;;;;;;;;6.53;58.68;100877.48;1740568;80;20152;-75
2021/05/20 01:24:44;;;;;;;;;;;;;;;6.52;58.70;100882.19;1748585;81;20222;-75
2021/05/20 01:27:12;;;;;;;;;;;;;;;6.47;58.70;100880.89;1750201;81;20159;-75
2021/05/20 01:29:40;;;;;;;;;;;;;;;6.44;58.77;100881.30;1748660;81;20165;-75
2021/05/20 01:32:06;;;;;;;;;;;;;;;6.42;58.86;100880.42;1751847;81;20194;-75
2021/05/20 01:34:34;;;;;;;;;;;;;;;6.38;58.82;100888.97;1739857;81;20174;-75
2021/05/20 01:37:05;;;;;;;;;;;;;;;6.35;58.95;100886.38;1732950;81;20173;-75
2021/05/20 01:39:31;;;;;;;;;;;;;;;6.33;58.93;100881.66;1742884;81;20138;-75
2021/05/20 01:41:57;;;;;;;;;;;;;;;6.29;58.94;100888.48;1751315;81;20193;-75
2021/05/20 01:44:35;;;;;;;;;;;;;;;6.21;58.94;100887.61;1725593;81;20174;-75
2021/05/20 01:47:01;;;;;;;;;;;;;;;6.20;59.00;100883.33;1743124;81;20177;-75
2021/05/20 01:49:27;;;;;;;;;;;;;;;6.19;59.05;100881.61;1754571;81;20192;-75
2021/05/20 01:51:57;;;;;;;;;;;;;;;6.10;59.04;100888.83;1746717;81;20307;-75
2021/05/20 01:54:23;;;;;;;;;;;;;;;6.09;59.21;100887.53;1741055;81;20272;-75
2021/05/20 01:56:49;;;;;;;;;;;;;;;6.11;59.22;100890.55;1750061;81;20286;-75
2021/05/20 01:59:19;;;;;;;;;;;;;;;6.09;59.15;100884.97;1750213;81;20261;-75
2021/05/20 02:01:45;;;;;;;;;;;;;;;6.09;59.19;100889.67;1755092;81;20223;-75
2021/05/20 02:04:11;;;;;;;;;;;;;;;6.05;58.97;100894.78;1729932;81;20177;-75
2021/05/20 02:06:37;;;;;;;;;;;;;;;5.91;59.08;100890.41;1746934;81;20267;-75
2021/05/20 02:09:05;;;;;;;;;;;;;;;5.88;59.25;100887.78;1750083;81;20191;-75
2021/05/20 02:11:31;;;;;;;;;;;;;;;5.90;59.21;100889.97;1754091;81;20254;-75
2021/05/20 02:13:57;;;;;;;;;;;;;;;5.82;59.25;100894.14;1762805;81;20254;-75
2021/05/20 02:16:24;;;;;;;;;;;;;;;5.82;59.26;100895.86;1736873;81;20423;-75
2021/05/20 02:19:02;;;;;;;;;;;;;;;5.78;59.30;100891.13;1747919;81;305935;-75
2021/05/20 02:21:28;;;;;;;;;;;;;;;5.79;59.34;100894.55;1751420;81;20171;-75
2021/05/20 02:23:54;;;;;;;;;;;;;;;5.78;59.36;100891.55;1737988;81;20174;-75
2021/05/20 02:26:21;;;;;;;;;;;;;;;5.75;59.35;100893.66;1747523;81;20152;-75
2021/05/20 02:28:47;;;;;;;;;;;;;;;5.72;59.39;100893.64;1749653;81;20187;-75
2021/05/20 02:31:14;;;;;;;;;;;;;;;5.69;59.48;100890.22;1752616;81;20164;-75
2021/05/20 02:33:40;;;;;;;;;;;;;;;5.63;59.48;100889.32;1760104;80;20143;-75
2021/05/20 02:36:07;;;;;;;;;;;;;;;5.61;59.58;100891.44;1743880;81;20185;-75
2021/05/20 02:38:33;;;;;;;;;;;;;;;5.61;59.67;100888.87;1752630;81;20167;-75
2021/05/20 02:40:59;;;;;;;;;;;;;;;5.60;59.68;100885.88;1752217;81;20175;-75
2021/05/20 02:43:26;;;;;;;;;;;;;;;5.53;59.74;100891.79;1733034;81;20156;-75
2021/05/20 02:45:52;;;;;;;;;;;;;;;5.52;59.81;100900.33;1736654;81;20157;-75
2021/05/20 02:48:19;;;;;;;;;;;;;;;5.50;59.77;100898.17;1751969;81;20179;-75
2021/05/20 02:50:48;;;;;;;;;;;;;;;5.47;59.72;100895.58;1753108;81;20187;-75
2021/05/20 02:53:14;;;;;;;;;;;;;;;5.46;59.81;100895.14;1744752;81;20225;-75
2021/05/20 02:55:40;;;;;;;;;;;;;;;5.43;59.79;100897.25;1731449;81;20204;-75
2021/05/20 02:58:06;;;;;;;;;;;;;;;5.40;59.79;100895.95;1737638;81;20249;-75
2021/05/20 03:00:35;;;;;;;;;;;;;;;5.40;59.86;100893.38;1748455;81;20289;-75
2021/05/20 03:03:01;;;;;;;;;;;;;;;5.40;59.87;100896.36;1740904;81;20177;-75
2021/05/20 03:05:27;;;;;;;;;;;;;;;5.40;59.92;100901.07;1744630;81;20185;-76
2021/05/20 03:07:54;;;;;;;;;;;;;;;5.39;59.82;100899.77;1740728;81;20296;-76
2021/05/20 03:10:20;;;;;;;;;;;;;;;5.32;59.89;100903.56;1760394;81;20174;-74
2021/05/20 03:12:46;;;;;;;;;;;;;;;5.25;59.91;100902.20;1751822;81;20146;-75
2021/05/20 03:15:12;;;;;;;;;;;;;;;5.25;60.09;100899.64;1733572;81;20158;-75
2021/05/20 03:17:40;;;;;;;;;;;;;;;5.28;60.11;100899.66;1753325;81;20186;-75
2021/05/20 03:20:07;;;;;;;;;;;;;;;5.30;60.23;100905.67;1752413;81;20151;-76
2021/05/20 03:22:33;;;;;;;;;;;;;;;5.37;60.27;100911.30;1735355;80;20171;-76
2021/05/20 03:25:00;;;;;;;;;;;;;;;5.38;60.31;100908.31;1746509;81;20195;-75
2021/05/20 03:27:26;;;;;;;;;;;;;;;5.40;60.37;100910.47;1726685;81;20186;-75
2021/05/20 03:29:53;;;;;;;;;;;;;;;5.42;60.44;100904.94;1749746;81;20161;-75
2021/05/20 03:32:19;;;;;;;;;;;;;;;5.50;60.47;100908.43;1740353;81;20180;-75
2021/05/20 03:34:45;;;;;;;;;;;;;;;5.52;60.41;100902.89;1768696;80;20208;-75
2021/05/20 03:37:11;;;;;;;;;;;;;;;5.50;60.50;100909.30;1737653;81;20175;-75
2021/05/20 03:39:37;;;;;;;;;;;;;;;5.52;60.53;100903.75;1756432;81;20175;-75
2021/05/20 03:42:09;;;;;;;;;;;;;;;5.54;60.65;100903.77;1743734;81;20189;-75
2021/05/20 03:44:35;;;;;;;;;;;;;;;5.57;60.71;100896.10;1759406;81;20167;-75
2021/05/20 03:47:01;;;;;;;;;;;;;;;5.60;60.83;100905.97;1752398;80;20145;-75
2021/05/20 03:49:31;;;;;;;;;;;;;;;5.57;60.68;100909.78;1742764;81;20185;-75
2021/05/20 03:51:57;;;;;;;;;;;;;;;5.63;60.85;100910.27;1757008;81;21063;-75
2021/05/20 03:54:24;;;;;;;;;;;;;;;5.67;60.86;100899.61;1746288;81;20182;-75
2021/05/20 03:56:56;;;;;;;;;;;;;;;5.67;60.88;100908.59;1744863;81;20163;-75
2021/05/20 03:59:22;;;;;;;;;;;;;;;5.67;61.01;100909.87;1741707;81;20171;-75
2021/05/20 04:01:51;;;;;;;;;;;;;;;5.83;61.37;100906.55;1745010;81;20167;-75
2021/05/20 04:04:17;;;;;;;;;;;;;;;6.09;61.29;100906.78;1742684;80;20190;-75
2021/05/20 04:06:43;;;;;;;;;;;;;;;6.35;61.51;100910.78;1735719;81;20199;-75
2021/05/20 04:09:09;;;;;;;;;;;;;;;6.68;61.67;100913.95;1738731;81;20154;-75
2021/05/20 04:11:35;;;;;;;;;;;;;;;7.01;61.43;100902.92;1730959;81;20187;-79
2021/05/20 04:14:01;;;;;;;;;;;;;;;7.19;61.41;100910.27;1731029;81;20169;-79
2021/05/20 04:16:27;;;;;;;;;;;;;;;7.36;61.29;100911.56;1738215;81;20836;-79
2021/05/20 04:18:53;;;;;;;;;;;;;;;7.43;61.27;100920.15;1740183;81;20248;-78
2021/05/20 04:21:19;;;;;;;;;;;;;;;7.49;61.30;100918.87;1747071;81;20181;-78
2021/05/20 04:23:46;;;;;;;;;;;;;;;7.53;61.34;100921.88;1737404;81;20138;-76
2021/05/20 04:26:20;;;;;;;;;;;;;;;7.61;61.45;100923.61;1732804;81;20185;-76
2021/05/20 04:28:47;;;;;;;;;;;;;;;7.69;61.50;100933.05;1740635;81;20205;-76
2021/05/20 04:31:13;;;;;;;;;;;;;;;7.76;61.54;100935.63;1740327;81;20705;-76
2021/05/20 04:33:41;;;;;;;;;;;;;;;7.83;61.60;100924.45;1747154;81;20143;-76
2021/05/20 04:36:07;;;;;;;;;;;;;;;7.91;61.71;100927.03;1745529;81;20193;-77
2021/05/20 04:38:33;;;;;;;;;;;;;;;7.96;61.78;100926.17;1732909;81;20213;-77
2021/05/20 04:41:00;;;;;;;;;;;;;;;8.02;61.83;100926.59;1733644;81;20912;-77
2021/05/20 04:43:26;;;;;;;;;;;;;;;8.10;61.92;100926.16;1733314;81;20312;-77
2021/05/20 04:45:51;;;;;;;;;;;;;;;8.19;61.96;100930.02;1723786;81;20344;-77
2021/05/20 04:48:17;;;;;;;;;;;;;;;8.29;62.05;100922.70;1738062;81;20588;-77
2021/05/20 04:50:46;;;;;;;;;;;;;;;8.39;62.07;100921.41;1740499;81;20260;-77
2021/05/20 04:53:12;;;;;;;;;;;;;;;8.51;62.19;100922.66;1731853;81;20784;-77
2021/05/20 04:55:38;;;;;;;;;;;;;;;8.63;62.32;100919.63;1735400;81;20201;-77
2021/05/20 04:58:04;;;;;;;;;;;;;;;8.83;62.39;100922.14;1738047;81;20205;-77
2021/05/20 05:00:30;;;;;;;;;;;;;;;9.13;62.61;100924.13;1742074;81;20272;-77
2021/05/20 05:02:56;;;;;;;;;;;;;;;9.62;62.86;100928.53;1723088;81;20267;-77
2021/05/20 05:05:22;;;;;;;;;;;;;;;10.26;62.88;100934.47;1730875;81;20242;-77
2021/05/20 05:07:48;;;;;;;;;;;;;;;10.99;62.71;100932.31;1719610;80;294482;-76
2021/05/20 05:10:14;;;;;;;;;;;;;;;11.66;62.35;100933.09;1739109;81;20284;-76
2021/05/20 05:12:40;;;;;;;;;;;;;;;12.24;62.53;100934.30;1739023;81;20251;-76
2021/05/20 05:15:07;;;;;;;;;;;;;;;12.97;62.37;100938.50;1720803;81;20227;-76
2021/05/20 05:17:37;;;;;;;;;;;;;;;13.63;62.24;100941.34;1741789;80;20279;-76
2021/05/20 05:20:06;;;;;;;;;;;;;;;14.44;62.04;100943.23;1749061;80;20272;-76
2021/05/20 05:22:32;;;;;;;;;;;;;;;15.06;61.48;100947.12;1742947;80;20175;-76
2021/05/20 05:24:58;;;;;;;;;;;;;;;15.64;61.49;100952.70;1738182;80;20156;-76
2021/05/20 05:27:24;;;;;;;;;;;;;;;16.27;61.07;100953.23;1743351;80;20157;-78
2021/05/20 05:29:51;;;;;;;;;;;;;;;16.74;60.49;100948.52;1742267;80;20173;-77
2021/05/20 05:32:18;;;;;;;;;;;;;;;17.15;59.99;100948.77;1743676;80;20182;-77
2021/05/20 05:34:44;;;;;;;;;;;;;;;17.66;60.19;100950.27;1746351;80;20195;-77
2021/05/20 05:37:10;;;;;;;;;;;;;;;18.34;59.88;100946.06;1742260;80;20173;-78
2021/05/20 05:39:35;;;;;;;;;;;;;;;18.85;59.50;100941.63;1749634;80;20185;-78
2021/05/20 05:42:01;;;;;;;;;;;;;;;19.31;59.46;100941.27;1754319;80;20166;-78
2021/05/20 05:44:28;;;;;;;;;;;;;;;19.81;59.12;100938.38;1756378;80;20177;-78
2021/05/20 05:46:54;;;;;;;;;;;;;;;20.40;59.08;100942.42;1739763;80;20166;-78
2021/05/20 05:49:30;;;;;;;;;;;;;;;20.70;58.57;100946.55;1734601;80;20199;-78
2021/05/20 05:52:00;;;;;;;;;;;;;;;21.05;58.63;100952.53;1744922;80;20579;-78
2021/05/20 05:54:25;;;;;;;;;;;;;;;21.56;58.40;100941.85;1752464;80;20169;-78
2021/05/20 05:56:51;;;;;;;;;;;;;;;21.79;58.11;100952.78;1742993;80;20171;-78
2021/05/20 05:59:18;;;;;;;;;;;;;;;22.03;58.07;100956.25;1745348;80;20185;-78
2021/05/20 06:01:44;;;;;;;;;;;;;;;22.46;58.02;100951.44;1744288;80;20185;-78
2021/05/20 06:04:10;;;;;;;;;;;;;;;22.91;57.85;100952.22;1725556;82;20241;-78
2021/05/20 06:06:37;;;;;;;;;;;;;;;23.42;57.56;100948.53;1743752;80;20265;-78
2021/05/20 06:09:05;;;;;;;;;;;;;;;23.88;57.27;100955.67;1759642;80;20249;-78
2021/05/20 06:11:32;;;;;;;;;;;;;;;23.76;57.07;100955.16;1741437;80;20172;-78
2021/05/20 06:14:02;;;;;;;;;;;;;;;23.10;56.52;100959.36;1730707;80;20240;-78
2021/05/20 06:16:34;;;;;;;;;;;;;;;22.60;56.35;100953.24;1759011;80;20265;-78
2021/05/20 06:19:03;;;;;;;;;;;;;;;22.33;56.78;100962.36;1737185;80;20191;-78
2021/05/20 06:21:29;;;;;;;;;;;;;;;22.34;56.65;100957.47;1735462;81;20228;-78
2021/05/20 06:23:56;;;;;;;;;;;;;;;22.44;56.50;100957.27;1746731;80;20277;-78
2021/05/20 06:26:22;;;;;;;;;;;;;;;22.54;56.25;100956.72;1738137;81;20269;-78
2021/05/20 06:28:48;;;;;;;;;;;;;;;22.41;55.69;100958.77;1738486;81;20204;-77
2021/05/20 06:31:14;;;;;;;;;;;;;;;22.42;56.00;100962.25;1707076;80;20776;-77
2021/05/20 06:33:40;;;;;;;;;;;;;;;22.74;55.74;100955.05;1714881;82;20627;-77
2021/05/20 06:36:07;;;;;;;;;;;;;;;22.88;55.27;100961.64;1696097;82;20523;-77
2021/05/20 06:38:33;;;;;;;;;;;;;;;23.02;55.36;100961.63;1722563;82;20256;-77
2021/05/20 06:41:02;;;;;;;;;;;;;;;23.04;55.09;100959.75;1722272;82;20881;-77
2021/05/20 06:43:27;;;;;;;;;;;;;;;23.16;54.78;100966.05;1706374;82;20227;-77
2021/05/20 06:45:52;;;;;;;;;;;;;;;23.32;54.62;100965.46;1706846;82;20556;-77
2021/05/20 06:48:18;;;;;;;;;;;;;;;23.33;54.14;100965.84;1720207;82;20794;-78
2021/05/20 06:50:44;;;;;;;;;;;;;;;23.41;54.12;100964.84;1727693;82;20521;-78
2021/05/20 06:53:11;;;;;;;;;;;;;;;23.41;53.74;100966.64;1704268;82;20613;-78
2021/05/20 06:55:37;;;;;;;;;;;;;;;23.39;53.84;100965.92;1705813;82;20192;-78
2021/05/20 07:00:33;;;;;;;;;;;;;;;23.27;53.46;100965.38;1712823;82;20213;-78
2021/05/20 07:02:59;;;;;;;;;;;;;;;23.08;53.16;100967.00;1718985;82;20285;-78
2021/05/20 07:05:25;;;;;;;;;;;;;;;22.88;53.28;100962.95;1710213;82;20239;-78
2021/05/20 07:07:51;;;;;;;;;;;;;;;22.56;53.02;100961.43;1718684;82;20223;-78
2021/05/20 07:10:21;;;;;;;;;;;;;;;22.42;53.09;100965.73;1712105;82;20216;-78
2021/05/20 07:12:47;;;;;;;;;;;;;;;22.18;52.84;100964.58;1700663;82;20259;-78
2021/05/20 07:15:13;;;;;;;;;;;;;;;22.11;53.36;100963.23;1702896;82;20192;-78
2021/05/20 07:17:39;;;;;;;;;;;;;;;22.17;52.81;100972.57;1706408;82;20295;-78
2021/05/20 07:20:07;;;;;;;;;;;;;;;22.31;52.90;100964.23;1716540;82;20241;-78
2021/05/20 07:22:34;;;;;;;;;;;;;;;22.57;52.79;100966.61;1713810;82;20197;-78
2021/05/20 07:25:03;;;;;;;;;;;;;;;22.43;52.32;100970.06;1721924;82;20219;-78
2021/05/20 07:27:28;;;;;;;;;;;;;;;22.02;52.15;100967.25;1718046;82;20174;-78
2021/05/20 07:29:54;;;;;;;;;;;;;;;21.56;51.96;100970.33;1715976;82;20799;-78
2021/05/20 07:32:20;;;;;;;;;;;;;;;21.18;51.89;100973.75;1710990;82;20171;-78
2021/05/20 07:34:46;;;;;;;;;;;;;;;20.82;51.79;100970.84;1716860;82;20215;-77
2021/05/20 07:37:12;;;;;;;;;;;;;;;20.39;51.58;100972.70;1709932;82;20170;-77
2021/05/20 07:39:39;;;;;;;;;;;;;;;20.14;51.80;100970.45;1713149;82;20192;-78
2021/05/20 07:42:07;;;;;;;;;;;;;;;20.02;51.74;100972.37;1712757;82;20468;-78
2021/05/20 07:44:35;;;;;;;;;;;;;;;19.81;51.64;100966.41;1708932;82;20393;-78
2021/05/20 07:47:01;;;;;;;;;;;;;;;19.47;51.51;100968.47;1714777;82;20193;-78
2021/05/20 07:49:28;;;;;;;;;;;;;;;19.30;51.59;100970.56;1710046;82;20678;-77
2021/05/20 07:51:54;;;;;;;;;;;;;;;19.06;51.42;100966.02;1708893;82;20692;-78
2021/05/20 07:54:20;;;;;;;;;;;;;;;18.96;51.41;100967.81;1711494;82;20194;-78
2021/05/20 07:56:46;;;;;;;;;;;;;;;18.95;51.53;100962.18;1709431;82;20464;-77
2021/05/20 07:59:14;;;;;;;;;;;;;;;18.89;51.34;100964.61;1715191;82;20208;-77
2021/05/20 08:01:49;;;;;;;;;;;;;;;18.93;51.25;100969.27;1713630;82;20537;-77
2021/05/20 08:04:14;;;;;;;;;;;;;;;18.96;51.09;100966.05;1710631;82;20519;-77
2021/05/20 08:06:48;;;;;;;;;;;;;;;18.82;50.94;100965.34;1715979;82;20196;-78
2021/05/20 08:11:49;;;;;;;;;;;;;;;18.46;50.93;100966.48;1709911;82;20882;-77
2021/05/20 08:14:15;;;;;;;;;;;;;;;18.49;51.02;100973.36;1702428;82;21048;-78
2021/05/20 08:16:41;;;;;;;;;;;;;;;18.48;50.88;100968.59;1696393;82;20209;-77
2021/05/20 08:19:09;;;;;;;;;;;;;;;18.40;50.88;100973.75;1702708;81;20613;-78
2021/05/20 08:21:35;;;;;;;;;;;;;;;18.33;50.80;100973.63;1729622;82;20841;-78
2021/05/20 08:24:01;;;;;;;;;;;;;;;18.33;50.83;100974.47;1711492;82;20452;-78
2021/05/20 08:26:27;;;;;;;;;;;;;;;18.27;50.74;100982.58;1694946;82;21150;-77
2021/05/20 08:28:54;;;;;;;;;;;;;;;18.20;50.73;100982.45;1705238;82;20238;-77
2021/05/20 08:31:20;;;;;;;;;;;;;;;18.16;50.82;100979.13;1694409;83;20536;-77
2021/05/20 08:33:47;;;;;;;;;;;;;;;18.15;50.72;100983.97;1703054;82;21124;-77
2021/05/20 08:36:14;;;;;;;;;;;;;;;18.13;50.81;100987.57;1704410;82;20721;-77
2021/05/20 08:38:40;;;;;;;;;;;;;;;18.06;50.51;100986.12;1703507;82;20881;-77
2021/05/20 08:41:15;;;;;;;;;;;;;;;17.89;50.56;100993.80;1705511;82;21101;-77
2021/05/20 08:43:41;;;;;;;;;;;;;;;17.81;50.67;100991.03;1702582;82;20614;-77
2021/05/20 08:46:07;;;;;;;;;;;;;;;17.85;50.82;100989.99;1709721;82;20295;-77
2021/05/20 08:48:33;;;;;;;;;;;;;;;17.88;50.84;100990.33;1709421;82;20601;-77
2021/05/20 08:51:01;;;;;;;;;;;;;;;17.92;50.86;100989.75;1706042;82;20634;-77
2021/05/20 08:53:27;;;;;;;;;;;;;;;17.88;50.73;100990.78;1709834;81;20661;-77
2021/05/20 08:55:53;;;;;;;;;;;;;;;17.78;50.68;100997.69;1714476;82;20256;-77
2021/05/20 08:58:24;;;;;;;;;;;;;;;17.72;50.77;100997.93;1702574;82;20256;-77
2021/05/20 09:00:47;;;;;;;;;;;;;;;17.69;50.75;101001.97;1708344;82;20295;-78
2021/05/20 09:03:14;;;;;;;;;;;;;;;17.66;50.83;101003.44;1710008;82;21195;-77
2021/05/20 09:05:41;;;;;;;;;;;;;;;17.70;50.81;100998.91;1717952;81;20579;-77
2021/05/20 09:08:12;;;;;;;;;;;;;;;17.83;50.77;100997.05;1716132;81;20519;-77
2021/05/20 09:10:39;;;;;;;;;;;;;;;18.48;50.83;100985.61;1712839;82;20657;-77
2021/05/20 09:13:08;;;;;;;;;;;;;;;19.02;50.68;100988.50;1715350;82;20190;-78
2021/05/20 09:15:39;;;;;;;;;;;;;;;19.21;50.60;100981.97;1706935;82;20156;-77
2021/05/20 09:18:20;;;;;;;;;;;;;;;19.22;50.61;100981.90;1719722;82;20150;-77
2021/05/20 09:20:51;;;;;;;;;;;;;;;19.06;50.57;100973.03;1723265;82;20167;-77
2021/05/20 09:23:31;;;;;;;;;;;;;;;18.88;50.44;100973.85;1701426;82;20503;-77
2021/05/20 09:26:08;;;;;;;;;;;;;;;18.67;50.39;100969.98;1707719;82;20774;-77
2021/05/20 09:28:43;;;;;;;;;;;;;;;18.56;50.63;100973.49;1710010;82;20905;-77
2021/05/20 09:31:14;;;;;;;;;;;;;;;18.52;50.67;100976.70;1709690;82;20212;-77
2021/05/20 09:33:54;;;;;;;;;;;;;;;18.38;50.52;100980.36;1717947;82;20511;-77
2021/05/20 09:36:23;;;;;;;;;;;;;;;18.21;50.44;100980.22;1706341;82;20152;-77
2021/05/20 09:38:49;;;;;;;;;;;;;;;18.08;50.54;100983.83;1709992;82;20616;-77
2021/05/20 09:41:19;;;;;;;;;;;;;;;17.90;50.58;100980.66;1705372;82;20246;-77
2021/05/20 09:43:46;;;;;;;;;;;;;;;17.61;50.34;100983.11;1702791;82;20162;-77
2021/05/20 09:46:18;;;;;;;;;;;;;;;17.30;50.46;100978.20;1714373;82;20330;-77
2021/05/20 09:48:46;;;;;;;;;;;;;;;17.14;50.67;100984.95;1712018;82;20491;-77
2021/05/20 09:51:26;;;;;;;;;;;;;;;16.96;50.50;100981.70;1699806;82;20908;-77
2021/05/20 09:53:54;;;;;;;;;;;;;;;16.82;50.63;100983.50;1709745;82;20519;-77
2021/05/20 09:56:34;;;;;;;;;;;;;;;16.77;50.78;100975.83;1710839;82;20184;-77
2021/05/20 09:59:00;;;;;;;;;;;;;;;16.76;50.85;100975.89;1703620;82;20146;-77
2021/05/20 10:01:26;;;;;;;;;;;;;;;16.81;50.71;100975.27;1710114;82;20530;-77
2021/05/20 10:03:55;;;;;;;;;;;;;;;16.75;50.80;100975.03;1695654;82;20224;-77
2021/05/20 10:06:40;;;;;;;;;;;;;;;16.75;50.85;100967.65;1723399;82;20637;-77
2021/05/20 10:09:09;;;;;;;;;;;;;;;16.78;51.16;100974.07;1707204;82;20764;-77
2021/05/20 10:11:36;;;;;;;;;;;;;;;16.78;51.34;100980.59;1709059;82;20559;-77
2021/05/20 10:14:04;;;;;;;;;;;;;;;16.78;51.34;100975.38;1718649;82;20460;-77
2021/05/20 10:16:31;;;;;;;;;;;;;;;16.72;51.40;100983.43;1703768;82;20194;-77
2021/05/20 10:18:57;;;;;;;;;;;;;;;16.71;51.72;100983.03;1708285;82;20200;-77
2021/05/20 10:21:24;;;;;;;;;;;;;;;16.76;51.98;100970.66;1718325;82;20166;-77
2021/05/20 10:23:53;;;;;;;;;;;;;;;16.87;51.88;100968.52;1712443;82;20174;-77
2021/05/20 10:26:19;;;;;;;;;;;;;;;17.01;51.81;100965.41;1709501;82;20208;-77
2021/05/20 10:28:46;;;;;;;;;;;;;;;17.14;51.59;100965.34;1715527;82;20185;-77
2021/05/20 10:31:13;;;;;;;;;;;;;;;17.23;51.38;100960.20;1721949;82;20786;-77
2021/05/20 10:33:39;;;;;;;;;;;;;;;17.30;51.39;100950.77;1709860;82;20172;-77
2021/05/20 10:36:06;;;;;;;;;;;;;;;17.37;51.67;100952.69;1716550;82;20144;-77
2021/05/20 10:38:35;;;;;;;;;;;;;;;17.42;51.54;100950.29;1707478;82;20184;-77
2021/05/20 10:41:26;;;;;;;;;;;;;;;17.33;51.46;100953.71;1711862;81;20160;-77
2021/05/20 10:44:08;;;;;;;;;;;;;;;17.27;51.91;100953.95;1663333;84;20217;-77
2021/05/20 10:47:01;;;;;;;;;;;;;;;17.48;52.43;100958.35;1656953;85;20201;-77
2021/05/20 10:49:50;;;;;;;;;;;;;;;17.65;51.92;100952.04;1673721;84;20172;-77
2021/05/20 10:52:42;;;;;;;;;;;;;;;17.78;51.63;100954.53;1666148;84;20703;-78
2021/05/20 10:55:07;;;;;;;;;;;;;;;17.84;51.55;100947.74;1666952;84;20518;-78
2021/05/20 10:57:53;;;;;;;;;;;;;;;17.79;51.46;100952.30;1709750;82;20176;-78
2021/05/20 11:00:36;;;;;;;;;;;;;;;17.65;51.42;100948.12;1714788;82;20443;-78
2021/05/20 11:03:03;;;;;;;;;;;;;;;17.61;51.59;100946.50;1711335;82;20168;-78
2021/05/20 11:05:42;;;;;;;;;;;;;;;17.68;51.43;100938.81;1711463;82;20171;-78
2021/05/20 11:08:10;;;;;;;;;;;;;;;17.74;51.76;100941.17;1705542;82;20215;-78
2021/05/20 11:10:37;;;;;;;;;;;;;;;17.87;51.44;100937.61;1712741;82;20185;-78
2021/05/20 11:13:04;;;;;;;;;;;;;;;17.94;51.42;100948.22;1712657;82;20511;-78
2021/05/20 11:15:31;;;;;;;;;;;;;;;17.98;51.11;100955.03;1714318;82;20172;-78
2021/05/20 11:18:17;;;;;;;;;;;;;;;17.90;50.95;100964.95;1716760;82;20177;-78
2021/05/20 11:20:54;;;;;;;;;;;;;;;17.63;50.75;100957.75;1713288;82;20203;-78
2021/05/20 11:23:22;;;;;;;;;;;;;;;17.23;50.62;100942.75;1714434;82;20576;-78
2021/05/20 11:26:00;;;;;;;;;;;;;;;16.96;51.06;100945.13;1713683;82;20148;-78
2021/05/20 11:28:26;;;;;;;;;;;;;;;16.84;51.33;100944.66;1710985;82;20171;-78
2021/05/20 11:30:57;;;;;;;;;;;;;;;16.81;51.22;100934.78;1718806;82;20160;-78
2021/05/20 11:33:24;;;;;;;;;;;;;;;16.85;51.21;100932.45;1707038;82;20172;-78
2021/05/20 11:36:11;;;;;;;;;;;;;;;16.90;51.30;100933.59;1713424;82;20769;-78
2021/05/20 11:38:26;;;;;;;;;;;;;;;17.06;51.15;100925.13;1711940;82;20178;-78
2021/05/20 11:40:53;;;;;;;;;;;;;;;17.11;51.01;100927.12;1709455;82;285371;-78
2021/05/20 11:43:28;;;;;;;;;;;;;;;17.18;51.07;100919.41;1716402;82;20172;-78
2021/05/20 11:45:55;;;;;;;;;;;;;;;17.30;51.14;100922.01;1718596;82;20158;-78
2021/05/20 11:48:21;;;;;;;;;;;;;;;17.50;51.33;100916.00;1707907;82;20209;-78
2021/05/20 11:50:53;;;;;;;;;;;;;;;17.70;51.17;100907.36;1709933;82;20282;-78
2021/05/20 11:53:20;;;;;;;;;;;;;;;17.85;51.10;100902.35;1702924;82;20169;-78
2021/05/20 11:55:46;;;;;;;;;;;;;;;17.87;50.91;100893.13;1709023;82;20182;-78
2021/05/20 11:58:14;;;;;;;;;;;;;;;17.88;50.99;100901.83;1715159;82;20181;-78
2021/05/20 12:00:40;;;;;;;;;;;;;;;17.86;51.10;100897.97;1716488;82;20442;-78
2021/05/20 12:03:07;;;;;;;;;;;;;;;17.88;51.10;100894.84;1709487;82;20195;-78
2021/05/20 12:05:36;;;;;;;;;;;;;;;17.89;51.07;100895.69;1723802;82;20177;-78
2021/05/20 12:08:02;;;;;;;;;;;;;;;17.78;50.84;100898.74;1711841;82;20165;-78
2021/05/20 12:10:28;;;;;;;;;;;;;;;17.68;51.00;100893.04;1718795;82;20199;-78
2021/05/20 12:12:56;;;;;;;;;;;;;;;17.74;50.96;100881.48;1714500;82;20160;-78
2021/05/20 12:15:26;;;;;;;;;;;;;;;17.87;51.21;100883.97;1712526;82;20206;-78
2021/05/20 12:17:54;;;;;;;;;;;;;;;18.02;51.04;100883.33;1689660;82;20195;-78
2021/05/20 12:20:20;;;;;;;;;;;;;;;18.05;50.74;100883.20;1703963;82;20152;-78
2021/05/20 12:22:47;;;;;;;;;;;;;;;18.04;50.85;100885.89;1712498;82;20155;-77
2021/05/20 12:25:15;;;;;;;;;;;;;;;18.10;50.92;100876.47;1711229;82;20156;-77
2021/05/20 12:27:44;;;;;;;;;;;;;;;18.20;51.00;100877.74;1709363;82;20186;-77
2021/05/20 12:30:13;;;;;;;;;;;;;;;18.30;50.84;100875.58;1712340;82;20149;-77
2021/05/20 12:32:42;;;;;;;;;;;;;;;18.31;50.72;100879.89;1709322;82;20162;-77
2021/05/20 12:35:14;;;;;;;;;;;;;;;18.28;50.82;100879.56;1716739;82;20168;-77
2021/05/20 12:37:49;;;;;;;;;;;;;;;18.36;50.85;100881.39;1718363;82;20200;-77
2021/05/20 12:40:18;;;;;;;;;;;;;;;18.47;50.89;100878.30;1709105;82;20196;-77
2021/05/20 12:42:54;;;;;;;;;;;;;;;18.62;50.99;100874.19;1703118;82;20187;-77
2021/05/20 12:45:28;;;;;;;;;;;;;;;18.80;50.84;100869.39;1713893;82;20176;-77
2021/05/20 12:47:54;;;;;;;;;;;;;;;18.90;50.72;100855.41;1720236;82;20150;-77
2021/05/20 12:50:33;;;;;;;;;;;;;;;18.88;50.60;100858.09;1713002;82;20148;-77